Data for 07/07/2018

Time Sea-Level Adjusted Pressure Absolute Pressure Temperature Relative Humidity Dew Point   
(mb) (inHg) (mb) (inHg) (C) (F) (%) (C) (F)
00:05 1022 30.18 852 25.16 20.5 68.9 33 3.8 38.8
00:10 1022 30.18 852 25.16 20.5 68.9 30 2.4 36.3
00:15 1022 30.18 852 25.16 20.4 68.8 30 2.6 36.7
00:20 1022 30.18 852 25.16 20.6 69.1 31 3 37.3
00:25 1022 30.18 852 25.16 20.7 69.2 31 3.3 37.9
00:30 1022 30.18 852 25.16 20.5 68.8 32 3.3 37.9
00:35 1022 30.18 852 25.16 20.3 68.5 32 3.5 38.2
00:40 1022 30.18 852 25.16 20.1 68.2 33 3.3 38
00:45 1022 30.18 852 25.16 20.2 68.3 32 3 37.4
00:50 1022 30.18 852 25.16 20.7 69.2 30 2.9 37.1
00:55 1022 30.18 852 25.16 20.9 69.6 30 2.8 37.1
01:00 1023 30.21 852 25.16 20.8 69.4 30 2.9 37.2
01:05 1023 30.21 852 25.16 20.7 69.3 30 2.8 37
01:10 1023 30.21 852 25.16 20.7 69.2 31 3 37.4
01:15 1023 30.21 852 25.16 20.5 68.8 30 2.7 36.8
01:20 1023 30.21 852 25.16 20.6 69.1 30 2.6 36.7
01:25 1023 30.21 852 25.16 20.5 69 31 2.8 37.1
01:30 1023 30.21 852 25.16 20.5 69 29 2.3 36.1
01:35 1023 30.21 852 25.16 20.8 69.4 30 2.9 37.2
01:40 1023 30.21 852 25.16 20.3 68.6 33 3.8 38.9
01:45 1023 30.21 852 25.16 19.1 66.3 35 3.4 38.1
01:50 1023 30.21 852 25.16 18.8 65.9 35 3.3 38
01:55 1023 30.21 852 25.16 18.7 65.6 37 3.8 38.8
02:00 1023 30.21 852 25.16 18.3 64.9 37 3.3 37.9
02:05 1023 30.21 852 25.16 18.4 65.2 33 2.2 35.9
02:10 1023 30.21 852 25.16 18.7 65.6 34 2.6 36.7
02:15 1023 30.21 852 25.16 18.4 65.1 38 4 39.3
02:20 1023 30.21 852 25.16 17.8 64 36 2.8 37.1
02:25 1023 30.21 852 25.16 17.5 63.5 39 3.4 38.1
02:30 1023 30.21 852 25.16 17.3 63.1 41 4.1 39.3
02:35 1023 30.21 852 25.16 17.2 62.9 39 3.3 37.9
02:40 1023 30.21 852 25.16 17.3 63.1 39 3.3 38
02:45 1023 30.21 852 25.16 17.1 62.8 39 3.3 37.9
02:50 1022 30.18 852 25.16 17.1 62.7 39 3.3 37.9
02:55 1022 30.18 852 25.16 16.7 62.1 40 3.3 37.9
03:00 1022 30.18 852 25.16 16.7 62.1 41 3.7 38.6
03:05 1022 30.18 852 25.16 16.6 62 40 3.1 37.5
03:10 1022 30.18 852 25.16 16.6 61.9 41 3.4 38.1
03:15 1022 30.18 852 25.16 16.6 61.8 38 2.4 36.4
03:20 1022 30.18 851 25.13 16.9 62.5 37 2.4 36.2
03:25 1022 30.18 852 25.16 16.8 62.2 39 2.7 36.9
03:30 1022 30.18 851 25.13 16.7 62 38 2.5 36.4
03:35 1022 30.18 851 25.13 16.6 61.9 39 2.9 37.1
03:40 1022 30.18 851 25.13 16.5 61.7 39 2.8 37
03:45 1022 30.18 851 25.13 16.3 61.3 41 3.2 37.8
03:50 1022 30.18 851 25.13 16.3 61.3 40 2.8 37
03:55 1022 30.18 851 25.13 16.2 61.2 42 3.3 37.9
04:00 1022 30.18 851 25.13 15.8 60.4 44 3.5 38.4
04:05 1022 30.18 851 25.13 15.4 59.8 45 3.6 38.5
04:10 1022 30.18 851 25.13 15.3 59.5 45 3.6 38.5
04:15 1022 30.18 851 25.13 15.2 59.4 45 3.4 38.2
04:20 1022 30.18 851 25.13 15.5 59.8 44 3.4 38.1
04:25 1022 30.18 851 25.13 15.6 60.1 44 3.4 38.1
04:30 1022 30.18 851 25.13 15.7 60.2 42 3 37.4
04:35 1022 30.18 851 25.13 15.8 60.5 43 3.3 37.9
04:40 1022 30.18 852 25.16 15.8 60.4 42 3 37.4
04:45 1023 30.21 852 25.16 15.8 60.4 42 2.9 37.3
04:50 1023 30.21 852 25.16 15.9 60.6 43 3.6 38.4
04:55 1023 30.21 852 25.16 15.8 60.4 45 4.1 39.3
05:00 1023 30.21 852 25.16 15.4 59.7 46 4.1 39.4
05:05 1023 30.21 852 25.16 15.1 59.1 48 4.2 39.5
05:10 1023 30.21 852 25.16 14.8 58.6 47 3.7 38.7
05:15 1023 30.21 852 25.16 14.6 58.2 49 3.9 39.1
05:20 1023 30.21 853 25.19 14.1 57.4 52 4.5 40.1
05:25 1024 30.24 853 25.19 13.5 56.2 54 4.5 40
05:30 1024 30.24 853 25.19 13.4 56.2 50 3.2 37.8
05:35 1024 30.24 853 25.19 13.9 57 48 3.2 37.7
05:40 1024 30.24 853 25.19 14.1 57.5 47 3.2 37.7
05:45 1024 30.24 853 25.19 14.6 58.2 46 3.1 37.6
05:50 1024 30.24 853 25.19 14.7 58.5 47 3.5 38.4
05:55 1024 30.24 853 25.19 14.5 58.2 49 3.9 39
06:00 1024 30.24 853 25.19 14.4 58 49 3.9 39
06:05 1024 30.24 853 25.19 14.4 57.9 50 4.1 39.4
06:10 1024 30.24 854 25.22 14.1 57.4 52 4.4 39.8
06:15 1024 30.24 854 25.22 13.6 56.4 54 4.4 39.9
06:20 1024 30.24 854 25.22 13.2 55.7 55 4.4 39.9
06:25 1024 30.24 854 25.22 13.2 55.7 53 3.9 39.1
06:30 1024 30.24 854 25.22 13.5 56.3 51 3.7 38.7
06:35 1024 30.24 854 25.22 13.7 56.6 52 4.1 39.5
06:40 1024 30.24 854 25.22 13.8 56.8 52 4.2 39.6
06:45 1024 30.24 854 25.22 13.6 56.4 55 4.8 40.7
06:50 1024 30.24 854 25.22 13.2 55.8 53 3.9 39.1
06:55 1024 30.24 854 25.22 13.5 56.3 53 4.1 39.3
07:00 1024 30.24 854 25.22 13.7 56.7 53 4.3 39.8
07:05 1024 30.24 853 25.19 13.9 57 53 4.5 40
07:10 1024 30.24 853 25.19 14 57.1 53 4.6 40.2
07:15 1024 30.24 853 25.19 14.2 57.5 52 4.6 40.3
07:20 1024 30.24 853 25.19 14.4 57.9 53 4.9 40.8
07:25 1024 30.24 853 25.19 14.4 57.9 53 4.9 40.9
07:30 1024 30.24 853 25.19 14.9 58.7 46 3.5 38.2
07:35 1024 30.24 853 25.19 15.5 59.9 46 4 39.3
07:40 1024 30.24 853 25.19 15.5 59.9 47 4.4 39.8
07:45 1024 30.24 853 25.19 15.4 59.8 48 4.5 40.1
07:50 1024 30.24 853 25.19 15.8 60.4 46 4.4 40
07:55 1024 30.24 853 25.19 16.1 60.9 45 4.4 39.8
08:00 1024 30.24 853 25.19 16.4 61.6 45 4.6 40.3
08:05 1024 30.24 853 25.19 16.6 61.9 45 4.7 40.5
08:10 1024 30.24 853 25.19 16.7 62 44 4.4 40
08:15 1024 30.24 853 25.19 16.5 61.8 45 4.8 40.6
08:20 1024 30.24 853 25.19 16.4 61.5 46 5 41
08:25 1024 30.24 853 25.19 16.4 61.5 48 5.4 41.7
08:30 1024 30.24 854 25.22 16.8 62.2 47 5.5 41.9
08:35 1024 30.24 853 25.19 17.3 63.2 43 4.8 40.7
08:40 1024 30.24 853 25.19 17.9 64.1 45 5.8 42.5
08:45 1024 30.24 853 25.19 18.2 64.8 44 6 42.8
08:50 1024 30.24 853 25.19 18.6 65.4 44 6.1 43
08:55 1024 30.24 853 25.19 19 66.1 42 5.9 42.7
09:00 1024 30.24 853 25.19 19.5 67 40 5.8 42.4
09:05 1024 30.24 853 25.19 19.9 67.8 41 6.3 43.3
09:10 1024 30.24 853 25.19 20 68 39 5.8 42.4
09:15 1024 30.24 853 25.19 20.3 68.6 39 6.2 43.2
09:20 1024 30.24 853 25.19 21 69.8 38 6.3 43.3
09:25 1024 30.24 853 25.19 20.9 69.6 38 6.3 43.4
09:30 1024 30.24 853 25.19 20.5 68.9 39 6.2 43.2
09:35 1024 30.24 853 25.19 20.4 68.7 39 6.1 43
09:40 1024 30.24 853 25.19 21.2 70.1 36 5.7 42.2
09:45 1024 30.24 853 25.19 21.6 70.8 34 5.1 41.2
09:50 1024 30.24 853 25.19 21.9 71.4 32 4.5 40.2
09:55 1024 30.24 853 25.19 22.2 71.9 33 5.2 41.4
10:00 1024 30.24 853 25.19 22.7 72.8 32 5.4 41.7
10:05 1024 30.24 853 25.19 23.1 73.5 33 6.3 43.3
10:10 1024 30.24 853 25.19 23.2 73.8 33 6.5 43.6
10:15 1024 30.24 853 25.19 23.1 73.6 34 6.6 43.9
10:20 1024 30.24 853 25.19 23.5 74.3 31 5.5 41.8
10:25 1024 30.24 853 25.19 24.1 75.5 28 4.8 40.6
10:30 1024 30.24 853 25.19 25 77 28 5.3 41.6
10:35 1024 30.24 853 25.19 25.5 77.8 25 4.5 40
10:40 1024 30.24 853 25.19 26.2 79.2 21 2.6 36.7
10:45 1023 30.21 853 25.19 26 78.8 22 2.9 37.2
10:50 1023 30.21 853 25.19 26.1 78.9 23 3.4 38.2
10:55 1023 30.21 853 25.19 26.7 80.1 20 1.9 35.4
11:00 1023 30.21 853 25.19 26.8 80.3 21 3.1 37.6
11:05 1023 30.21 852 25.16 26.8 80.3 20 2.4 36.2
11:10 1023 30.21 852 25.16 26.5 79.7 23 4 39.3
11:15 1023 30.21 852 25.16 27.4 81.3 21 3.3 37.9
11:20 1023 30.21 852 25.16 27.4 81.3 20 3.1 37.5
11:25 1023 30.21 852 25.16 27.4 81.4 19 2.4 36.2
11:30 1023 30.21 852 25.16 27.2 81 19 2.2 36
11:35 1023 30.21 852 25.16 27.3 81.1 18 0.9 33.6
11:40 1023 30.21 852 25.16 28.3 82.9 18 1.7 35
11:45 1023 30.21 852 25.16 28.8 83.8 18 2.4 36.3
11:50 1023 30.21 852 25.16 29.1 84.5 15 0.5 32.9
11:55 1023 30.21 852 25.16 29 84.2 17 1.9 35.3
12:00 1023 30.21 852 25.16 28.6 83.4 17 1.1 34
12:05 1023 30.21 852 25.16 28.9 84 15 0.3 32.6
12:10 1023 30.21 852 25.16 28.6 83.5 17 1.3 34.3
12:15 1022 30.18 852 25.16 29 84.2 16 0.8 33.4
12:20 1022 30.18 852 25.16 29.4 84.9 18 3 37.4
12:25 1022 30.18 852 25.16 29.3 84.7 19 4 39.2
12:30 1022 30.18 851 25.13 27.8 82 24 5.7 42.3
12:35 1022 30.18 852 25.16 28.6 83.4 19 3 37.4
12:40 1022 30.18 851 25.13 28.8 83.8 25 6.9 44.4
12:45 1022 30.18 851 25.13 28.6 83.5 23 5.7 42.3
12:50 1022 30.18 851 25.13 28.6 83.5 21 4.2 39.5
12:55 1022 30.18 851 25.13 28.9 84 22 5.5 41.9
13:00 1022 30.18 851 25.13 27.8 82 24 5.8 42.4
13:05 1022 30.18 851 25.13 27.8 82 23 4.9 40.8
13:10 1022 30.18 851 25.13 28.3 82.9 20 3.3 37.9
13:15 1022 30.18 851 25.13 28.4 83.1 19 2.9 37.2
13:20 1022 30.18 851 25.13 28 82.3 21 4 39.1
13:25 1022 30.18 851 25.13 27.9 82.1 21 4.1 39.4
13:30 1022 30.18 851 25.13 28.5 83.4 20 3.7 38.7
13:35 1022 30.18 851 25.13 29.4 84.9 18 3.2 37.8
13:40 1022 30.18 851 25.13 29.8 85.7 19 4 39.1
13:45 1022 30.18 851 25.13 29.6 85.3 19 3.5 38.4
13:50 1022 30.18 851 25.13 29.6 85.2 19 3.7 38.6
13:55 1022 30.18 851 25.13 29.1 84.4 19 3.7 38.7
14:00 1022 30.18 851 25.13 29.4 85 19 3.8 38.9
14:05 1022 30.18 851 25.13 29.2 84.6 19 3.3 37.9
14:10 1021 30.15 851 25.13 28.7 83.7 19 3 37.5
14:15 1021 30.15 851 25.13 29.4 84.9 19 3.4 38.2
14:20 1021 30.15 851 25.13 29.1 84.4 19 3.6 38.4
14:25 1021 30.15 850 25.1 29.5 85 18 3 37.4
14:30 1021 30.15 850 25.1 30.2 86.3 18 3.8 38.8
14:35 1021 30.15 850 25.1 29.6 85.3 19 3.8 38.9
14:40 1021 30.15 850 25.1 29.9 85.8 17 2.6 36.7
14:45 1021 30.15 850 25.1 29.3 84.8 18 3 37.3
14:50 1021 30.15 850 25.1 30.1 86.1 18 3.3 38
14:55 1021 30.15 850 25.1 30.5 87 17 3.3 38
15:00 1021 30.15 850 25.1 29.6 85.3 19 4 39.2
15:05 1021 30.15 850 25.1 29.8 85.6 18 3.3 38
15:10 1021 30.15 850 25.1 29.4 85 18 3.1 37.6
15:15 1021 30.15 850 25.1 29 84.2 19 3.5 38.3
15:20 1021 30.15 850 25.1 28.7 83.7 19 3.4 38.2
15:25 1021 30.15 850 25.1 29.5 85.1 19 3.6 38.4
15:30 1021 30.15 850 25.1 30.3 86.6 17 2.6 36.7
15:35 1021 30.15 850 25.1 29.4 85 20 4.1 39.4
15:40 1021 30.15 850 25.1 29.3 84.7 19 3.7 38.7
15:45 1021 30.15 850 25.1 30.3 86.5 18 3.5 38.2
15:50 1021 30.15 850 25.1 30 86 19 3.8 38.9
15:55 1021 30.15 850 25.1 29.2 84.6 19 3.6 38.5
16:00 1021 30.15 850 25.1 28.7 83.7 20 3.8 38.8
16:05 1021 30.15 850 25.1 28.8 83.8 20 4.1 39.4
16:10 1021 30.15 850 25.1 28.7 83.7 21 4.7 40.5
16:15 1021 30.15 850 25.1 28.5 83.2 20 3.6 38.6
16:20 1021 30.15 850 25.1 28 82.5 22 4.5 40.1
16:25 1021 30.15 850 25.1 28.2 82.7 21 3.8 38.8
16:30 1021 30.15 850 25.1 28.3 83 21 4.1 39.3
16:35 1021 30.15 850 25.1 28.4 83 21 4.2 39.5
16:40 1021 30.15 850 25.1 28.5 83.4 23 5.8 42.4
16:45 1021 30.15 850 25.1 28.4 83.1 23 5.8 42.5
16:50 1021 30.15 850 25.1 28.3 83 21 4.5 40.2
16:55 1021 30.15 850 25.1 29 84.1 20 4.3 39.8
17:00 1021 30.15 850 25.1 29.7 85.5 22 6.1 42.9
17:05 1021 30.15 850 25.1 29.2 84.6 20 4.5 40
17:10 1020 30.12 850 25.1 28.9 84.1 21 4.7 40.5
17:15 1020 30.12 849 25.07 29.2 84.6 20 4.5 40.2
17:20 1020 30.12 849 25.07 29.3 84.8 20 4.2 39.5
17:25 1020 30.12 849 25.07 30.1 86.1 21 5.9 42.6
17:30 1020 30.12 849 25.07 29.7 85.5 21 5.7 42.3
17:35 1020 30.12 849 25.07 28.3 83 23 5.2 41.4
17:40 1020 30.12 849 25.07 28 82.3 24 5.6 42.2
17:45 1020 30.12 849 25.07 27.5 81.5 29 8 46.5
17:50 1020 30.12 849 25.07 27.1 80.8 26 6.4 43.5
17:55 1020 30.12 849 25.07 26.9 80.5 26 5.8 42.5
18:00 1020 30.12 849 25.07 27 80.6 26 6.1 42.9
18:05 1020 30.12 849 25.07 26.9 80.5 28 7.2 45
18:10 1020 30.12 849 25.07 26.9 80.4 26 6.2 43.2
18:15 1020 30.12 849 25.07 26.8 80.3 26 6.1 42.9
18:20 1020 30.12 849 25.07 26.9 80.4 27 6.4 43.5
18:25 1020 30.12 849 25.07 27.1 80.7 32 9.3 48.8
18:30 1020 30.12 849 25.07 25.2 77.4 40 10.9 51.6
18:35 1020 30.12 849 25.07 24 75.2 47 12.3 54.2
18:40 1020 30.12 849 25.07 23.7 74.6 40 9.6 49.3
18:45 1020 30.12 849 25.07 23.8 74.9 40 9.4 49
18:50 1020 30.12 849 25.07 24.2 75.6 52 14 57.1
18:55 1020 30.12 849 25.07 24.1 75.4 50 13.1 55.6
19:00 1020 30.12 849 25.07 24.5 76.2 40 10.1 50.2
19:05 1019 30.09 849 25.07 24.7 76.4 38 9.4 49
19:10 1019 30.09 849 25.07 24.5 76.1 35 8.2 46.8
19:15 1019 30.09 848 25.04 24.3 75.7 43 11.1 52
19:20 1019 30.09 848 25.04 24 75.2 44 11.2 52.1
19:25 1019 30.09 849 25.07 23.8 74.8 48 12.2 53.9
19:30 1020 30.12 849 25.07 23.5 74.3 44 10.9 51.6
19:35 1021 30.15 850 25.1 23.3 74 50 12.4 54.3
19:40 1021 30.15 850 25.1 22.3 72.1 47 10.6 51.2
19:45 1021 30.15 850 25.1 22 71.6 50 11.1 52
19:50 1021 30.15 850 25.1 20.4 68.7 54 10.9 51.6
19:55 1020 30.12 849 25.07 19.7 67.4 58 11.4 52.5
20:00 1020 30.12 849 25.07 19.4 67 53 9.6 49.3
20:05 1020 30.12 849 25.07 20.1 68.1 50 9.6 49.2
20:10 1020 30.12 849 25.07 20.2 68.4 50 9.5 49.1
20:15 1020 30.12 849 25.07 20.9 69.6 45 8.6 47.4
20:20 1020 30.12 849 25.07 20.7 69.2 54 11 51.9
20:25 1020 30.12 849 25.07 19.8 67.6 57 11.2 52.2
20:30 1020 30.12 849 25.07 19.3 66.7 60 11.4 52.5
20:35 1020 30.12 849 25.07 19.1 66.4 59 11.1 52
20:40 1020 30.12 849 25.07 19 66.2 60 11.1 51.9
20:45 1020 30.12 849 25.07 18.8 65.9 58 10.6 51
20:50 1020 30.12 849 25.07 18.8 65.9 59 10.7 51.3
20:55 1020 30.12 849 25.07 18.8 65.9 55 9.7 49.5
21:00 1020 30.12 849 25.07 19 66.2 54 9.6 49.4
21:05 1020 30.12 849 25.07 19 66.2 55 9.8 49.7
21:10 1020 30.12 849 25.07 19 66.2 55 9.8 49.7
21:15 1020 30.12 849 25.07 18.9 66 56 10 50
21:20 1020 30.12 849 25.07 18.9 66 54 9.6 49.3
21:25 1020 30.12 849 25.07 19 66.2 54 9.5 49.1
21:30 1020 30.12 849 25.07 19.1 66.4 53 9.5 49.1
21:35 1020 30.12 849 25.07 19.3 66.7 51 9.1 48.4
21:40 1020 30.12 849 25.07 19.5 67 51 9.3 48.7
21:45 1020 30.12 849 25.07 19.4 67 51 9.3 48.7
21:50 1020 30.12 849 25.07 19.3 66.7 52 9.3 48.7
21:55 1020 30.12 849 25.07 19.2 66.6 52 9.3 48.7
22:00 1020 30.12 849 25.07 19.2 66.6 51 8.9 48
22:05 1020 30.12 849 25.07 19.4 66.9 50 8.8 47.9
22:10 1021 30.15 850 25.1 19.4 67 49 8.7 47.7
22:15 1021 30.15 850 25.1 19.7 67.5 47 8.2 46.8
22:20 1020 30.12 850 25.1 20.1 68.2 46 8.3 46.9
22:25 1021 30.15 850 25.1 20.4 68.6 42 7.2 45
22:30 1021 30.15 850 25.1 20.8 69.5 43 8.1 46.6
22:35 1021 30.15 850 25.1 20.7 69.3 45 8.5 47.2
22:40 1021 30.15 850 25.1 20.1 68.2 48 8.9 48
22:45 1021 30.15 850 25.1 19.6 67.3 48 8.4 47.2
22:50 1021 30.15 850 25.1 19.7 67.4 47 8.2 46.7
22:55 1021 30.15 850 25.1 19.6 67.2 52 9.7 49.5
23:00 1021 30.15 850 25.1 18.8 65.8 53 9.3 48.7
23:05 1021 30.15 850 25.1 18.6 65.5 56 9.7 49.4
23:10 1021 30.15 850 25.1 18.3 64.9 60 10.5 51
23:15 1021 30.15 850 25.1 17.9 64.1 63 10.8 51.4
23:20 1021 30.15 850 25.1 17.6 63.6 65 10.9 51.6
23:25 1021 30.15 851 25.13 17.5 63.6 63 10.4 50.8
23:30 1021 30.15 851 25.13 17.8 64.1 62 10.6 51
23:35 1022 30.18 851 25.13 17.8 64 61 10.2 50.4
23:40 1022 30.18 851 25.13 17.7 63.8 60 9.8 49.7
23:45 1022 30.18 851 25.13 17.7 63.9 59 9.8 49.7
23:50 1022 30.18 851 25.13 17.6 63.7 62 10.2 50.4
23:55 1022 30.18 851 25.13 17.3 63.1 61 9.7 49.4
24:00 1022 30.18 851 25.13 17.9 64.3 57 9.4 48.9